Time;durP1;ratioP1;P1;durP2;ratioP2;P2;SDS_P1;SDS_P2;PMS_P1;PMS_P2;Temp;Humidity;BMP_temperature;BMP_pressure;BME280_temperature;BME280_humidity;BME280_pressure;Samples;Min_cycle;Max_cycle;Signal;HPM_P1;HPM_P2
2021/04/09 00:04:40;;;;;;;6.70;4.87;;;4.60;29.40;;;;;;10448714;28;20317;-75
2021/04/09 00:09:43;;;;;;;6.13;5.50;;;4.60;29.70;;;;;;10452285;28;20304;-74
2021/04/09 00:14:46;;;;;;;5.20;4.70;;;4.50;29.80;;;;;;10448266;28;20264;-75
2021/04/09 00:19:48;;;;;;;4.97;4.50;;;4.60;29.80;;;;;;10447145;28;20744;-75
2021/04/09 00:24:51;;;;;;;6.37;5.77;;;4.60;29.90;;;;;;10446308;28;20240;-75
2021/04/09 00:29:54;;;;;;;7.20;5.60;;;4.60;29.90;;;;;;10450339;28;20316;-75
2021/04/09 00:34:56;;;;;;;5.10;4.60;;;4.60;29.80;;;;;;10449218;28;20319;-75
2021/04/09 00:39:59;;;;;;;5.20;4.70;;;4.60;29.90;;;;;;10447712;28;20308;-74
2021/04/09 00:45:01;;;;;;;6.07;5.57;;;4.70;30.00;;;;;;10444336;28;20236;-75
2021/04/09 00:50:05;;;;;;;5.73;5.23;;;4.70;30.00;;;;;;10442476;28;20216;-74
2021/04/09 00:55:13;;;;;;;5.07;4.57;;;4.70;30.00;;;;;;10445279;28;20247;-75
2021/04/09 01:00:16;;;;;;;5.73;5.13;;;4.70;30.00;;;;;;10448011;28;20320;-75
2021/04/09 01:05:19;;;;;;;6.20;5.60;;;4.70;30.00;;;;;;10448731;28;20237;-75
2021/04/09 01:10:22;;;;;;;5.80;5.30;;;4.70;29.90;;;;;;10443239;28;20311;-74
2021/04/09 01:15:25;;;;;;;5.77;5.27;;;4.70;30.00;;;;;;10448898;28;20320;-75
2021/04/09 01:20:40;;;;;;;6.00;5.43;;;4.60;29.90;;;;;;10456520;28;20289;-74
2021/04/09 01:26:32;;;;;;;5.50;5.00;;;4.60;30.40;;;;;;10455162;28;20216;-75
2021/04/09 01:31:47;;;;;;;5.70;5.13;;;4.50;30.30;;;;;;10458038;28;20304;-75
2021/04/09 01:36:53;;;;;;;5.37;4.63;;;4.50;30.30;;;;;;10453770;28;20320;-75
2021/04/09 01:41:56;;;;;;;7.37;6.07;;;4.50;30.20;;;;;;10460299;28;20764;-75
2021/04/09 01:47:01;;;;;;;5.93;5.43;;;4.50;30.10;;;;;;10455774;28;20747;-75
2021/04/09 01:52:07;;;;;;;6.03;5.53;;;4.40;30.20;;;;;;10452146;28;20225;-75
2021/04/09 01:57:11;;;;;;;5.70;5.20;;;4.40;30.30;;;;;;10460887;28;20716;-75
2021/04/09 02:02:16;;;;;;;5.00;4.60;;;4.40;30.20;;;;;;10455401;28;20264;-75
2021/04/09 02:07:20;;;;;;;7.23;6.10;;;4.40;30.40;;;;;;10455007;28;20308;-75
2021/04/09 02:12:22;;;;;;;5.90;5.20;;;4.40;30.20;;;;;;10455005;28;20320;-75
2021/04/09 02:17:25;;;;;;;6.20;5.60;;;4.40;30.30;;;;;;10454257;28;20245;-75
2021/04/09 02:22:27;;;;;;;5.40;4.90;;;4.30;30.10;;;;;;10454643;28;20311;-75
2021/04/09 02:27:30;;;;;;;5.27;4.77;;;4.30;30.10;;;;;;10453455;28;20307;-74
2021/04/09 02:32:33;;;;;;;5.33;4.83;;;4.30;30.40;;;;;;10453671;28;20308;-75
2021/04/09 02:37:36;;;;;;;5.57;5.07;;;4.20;30.40;;;;;;10453426;28;20303;-75
2021/04/09 02:42:39;;;;;;;5.87;5.37;;;4.40;30.50;;;;;;10450804;28;20748;-75
2021/04/09 02:47:44;;;;;;;5.77;5.20;;;4.30;30.40;;;;;;10448157;28;20318;-75
2021/04/09 02:52:52;;;;;;;5.70;4.60;;;4.20;30.60;;;;;;10452526;28;20287;-75
2021/04/09 02:57:55;;;;;;;5.23;4.83;;;4.20;30.60;;;;;;10452501;28;20752;-75
2021/04/09 03:03:01;;;;;;;5.13;4.73;;;4.20;30.40;;;;;;10455473;28;20229;-75
2021/04/09 03:08:04;;;;;;;5.53;4.97;;;4.20;30.50;;;;;;10455045;28;20228;-75
2021/04/09 03:13:07;;;;;;;5.70;5.20;;;4.10;30.30;;;;;;10452639;28;20311;-74
2021/04/09 03:18:12;;;;;;;7.70;5.87;;;4.20;30.30;;;;;;10452556;28;20252;-74
2021/04/09 03:23:15;;;;;;;6.47;5.80;;;4.10;30.60;;;;;;10452340;28;20229;-75
2021/04/09 03:28:17;;;;;;;6.17;5.67;;;4.00;30.40;;;;;;10452210;28;20260;-75
2021/04/09 03:33:22;;;;;;;6.17;5.67;;;4.00;30.30;;;;;;10451495;28;20699;-75
2021/04/09 03:38:24;;;;;;;6.13;5.53;;;4.00;30.60;;;;;;10449190;28;20786;-75
2021/04/09 03:43:27;;;;;;;6.47;5.87;;;4.10;30.40;;;;;;10444403;28;20304;-75
2021/04/09 03:48:30;;;;;;;5.17;4.67;;;4.10;30.50;;;;;;10450279;28;20311;-75
2021/04/09 03:53:32;;;;;;;7.47;5.50;;;4.00;31.20;;;;;;10450185;28;20931;-74
2021/04/09 03:58:34;;;;;;;6.73;5.97;;;3.90;30.50;;;;;;10450711;28;20225;-75
2021/04/09 04:03:37;;;;;;;6.83;5.87;;;3.90;30.50;;;;;;10450738;28;20250;-75
2021/04/09 04:08:39;;;;;;;5.40;4.90;;;3.90;30.60;;;;;;10450052;28;20276;-75
2021/04/09 04:13:42;;;;;;;5.90;5.40;;;3.90;30.30;;;;;;10450180;28;20235;-75
2021/04/09 04:18:45;;;;;;;5.20;4.80;;;3.90;30.50;;;;;;10453552;28;20315;-75
2021/04/09 04:23:48;;;;;;;6.83;4.40;;;3.80;30.50;;;;;;10449926;28;20253;-75
2021/04/09 04:28:51;;;;;;;5.93;5.43;;;3.70;31.10;;;;;;10449585;28;20669;-74
2021/04/09 04:33:54;;;;;;;5.67;5.07;;;3.70;30.40;;;;;;10449767;28;20312;-75
2021/04/09 04:38:56;;;;;;;6.60;5.73;;;3.70;30.50;;;;;;10449364;28;20259;-75
2021/04/09 04:43:59;;;;;;;7.23;6.53;;;3.70;30.50;;;;;;10449365;28;20643;-75
2021/04/09 04:49:02;;;;;;;8.43;7.63;;;3.80;30.60;;;;;;10447800;28;20663;-75
2021/04/09 04:54:04;;;;;;;8.03;7.23;;;3.60;30.50;;;;;;10448102;28;20311;-74
2021/04/09 04:59:06;;;;;;;7.43;6.57;;;3.60;30.50;;;;;;10449100;28;20274;-75
2021/04/09 05:04:09;;;;;;;6.90;6.30;;;3.60;30.50;;;;;;10449175;28;20323;-74
2021/04/09 05:09:12;;;;;;;7.00;6.30;;;3.60;30.70;;;;;;10447069;28;20221;-74
2021/04/09 05:14:14;;;;;;;7.50;6.40;;;3.50;30.50;;;;;;10447686;28;20829;-75
2021/04/09 05:19:17;;;;;;;5.57;5.07;;;3.50;30.60;;;;;;10449345;28;20225;-75
2021/04/09 05:24:20;;;;;;;6.47;5.80;;;3.50;30.80;;;;;;10442725;28;20262;-75
2021/04/09 05:29:22;;;;;;;6.83;6.23;;;3.50;30.80;;;;;;10446526;28;20229;-75
2021/04/09 05:34:25;;;;;;;8.03;5.73;;;3.50;31.00;;;;;;10446447;28;20247;-75
2021/04/09 05:39:27;;;;;;;6.80;6.10;;;3.50;31.10;;;;;;10447635;28;20228;-75
2021/04/09 05:44:30;;;;;;;7.97;7.20;;;3.60;31.20;;;;;;10451249;28;20256;-75
2021/04/09 05:49:34;;;;;;;7.73;6.50;;;3.60;31.30;;;;;;10448002;28;20320;-75
2021/04/09 05:54:37;;;;;;;7.07;5.87;;;3.60;31.60;;;;;;10444888;28;20225;-75
2021/04/09 05:59:39;;;;;;;7.73;7.03;;;3.60;31.50;;;;;;10452125;28;20755;-75
2021/04/09 06:04:43;;;;;;;14.97;7.70;;;3.80;31.80;;;;;;10446029;28;20237;-75
2021/04/09 06:09:46;;;;;;;9.33;7.90;;;3.60;31.70;;;;;;10459191;28;20243;-75
2021/04/09 06:14:48;;;;;;;7.03;6.33;;;3.70;32.00;;;;;;10455700;28;20319;-75
2021/04/09 06:19:52;;;;;;;6.60;6.00;;;3.70;32.20;;;;;;10452598;28;20228;-75
2021/04/09 06:24:55;;;;;;;7.10;6.00;;;3.90;32.60;;;;;;10457533;28;20239;-75
2021/04/09 06:29:57;;;;;;;7.90;5.70;;;3.90;32.60;;;;;;10452288;28;20311;-74
2021/04/09 06:35:00;;;;;;;5.00;4.17;;;4.00;32.70;;;;;;10451148;28;20229;-74
2021/04/09 06:40:03;;;;;;;5.10;4.60;;;4.10;35.10;;;;;;10453793;28;20260;-74
2021/04/09 06:45:06;;;;;;;6.30;5.07;;;4.40;34.00;;;;;;10453744;28;20320;-73
2021/04/09 06:50:11;;;;;;;5.60;5.07;;;4.70;33.90;;;;;;10453134;28;20263;-73
2021/04/09 06:55:18;;;;;;;5.70;5.10;;;4.90;34.10;;;;;;10460813;28;20340;-73
2021/04/09 07:00:23;;;;;;;5.80;4.80;;;5.10;33.70;;;;;;10459038;28;20308;-73
2021/04/09 07:05:27;;;;;;;5.83;4.93;;;5.30;34.00;;;;;;10454421;28;20308;-73
2021/04/09 07:10:29;;;;;;;5.37;4.57;;;5.50;33.60;;;;;;10453406;28;20275;-73
2021/04/09 07:15:38;;;;;;;5.07;4.57;;;5.70;33.40;;;;;;10445908;28;20748;-73
2021/04/09 07:20:42;;;;;;;5.70;4.80;;;6.00;33.90;;;;;;10451224;28;20308;-73
2021/04/09 07:25:45;;;;;;;5.00;4.50;;;6.20;33.50;;;;;;10454015;28;20241;-72
2021/04/09 07:30:50;;;;;;;4.80;4.17;;;6.50;33.60;;;;;;10450363;28;20228;-72
2021/04/09 07:35:55;;;;;;;7.43;6.73;;;6.70;33.70;;;;;;10447748;28;20225;-72
2021/04/09 07:40:59;;;;;;;4.53;4.13;;;7.00;33.50;;;;;;10449365;28;20282;-72
2021/04/09 07:46:04;;;;;;;4.33;3.90;;;7.20;33.30;;;;;;10441533;28;20222;-72
2021/04/09 07:51:08;;;;;;;4.93;3.77;;;7.50;33.20;;;;;;10455872;28;20290;-72
2021/04/09 07:56:11;;;;;;;5.53;4.20;;;7.80;32.70;;;;;;10442874;28;20267;-72
2021/04/09 08:01:21;;;;;;;6.43;3.23;;;8.20;33.00;;;;;;10452584;28;20245;-72
2021/04/09 08:06:34;;;;;;;8.93;7.20;;;8.50;32.30;;;;;;10440202;28;20249;-73
2021/04/09 08:11:38;;;;;;;7.60;5.70;;;8.80;32.40;;;;;;10445348;28;20233;-72
2021/04/09 08:16:42;;;;;;;3.73;3.30;;;9.10;32.40;;;;;;10447620;28;20263;-73
2021/04/09 08:21:49;;;;;;;4.00;3.20;;;9.40;32.20;;;;;;10444930;28;20237;-72
2021/04/09 08:26:52;;;;;;;4.33;3.30;;;9.80;31.90;;;;;;10446424;28;20282;-72
2021/04/09 08:31:55;;;;;;;3.03;2.73;;;10.10;31.00;;;;;;10444962;28;20732;-73
2021/04/09 08:36:59;;;;;;;3.10;2.80;;;10.40;30.60;;;;;;10443972;28;20287;-73
2021/04/09 08:42:18;;;;;;;4.33;3.00;;;10.70;30.40;;;;;;10446558;28;20229;-72
2021/04/09 08:47:21;;;;;;;3.83;2.80;;;11.10;30.40;;;;;;10442835;28;20304;-72
2021/04/09 08:52:26;;;;;;;5.47;4.63;;;11.30;30.00;;;;;;10444321;28;20290;-72
2021/04/09 08:57:30;;;;;;;4.27;3.80;;;11.60;29.50;;;;;;10443028;28;20253;-72
2021/04/09 09:02:40;;;;;;;5.03;3.87;;;11.90;29.60;;;;;;10444067;28;20736;-72
2021/04/09 09:08:07;;;;;;;3.67;3.27;;;12.30;29.20;;;;;;10446911;28;20279;-72
2021/04/09 09:13:40;;;;;;;4.40;3.37;;;12.60;29.30;;;;;;10446703;28;20283;-72
2021/04/09 09:18:54;;;;;;;3.30;3.00;;;13.00;29.10;;;;;;10441610;28;20734;-72
2021/04/09 09:23:58;;;;;;;2.83;2.03;;;13.30;28.40;;;;;;10444976;28;20311;-72
2021/04/09 09:29:28;;;;;;;2.40;2.20;;;13.50;28.00;;;;;;10452713;28;20228;-72
2021/04/09 09:34:35;;;;;;;2.50;2.30;;;13.90;27.90;;;;;;10396890;28;20225;-72
2021/04/09 09:39:42;;;;;;;2.83;2.20;;;14.10;27.00;;;;;;10452575;28;20252;-73
2021/04/09 09:44:46;;;;;;;2.37;2.20;;;14.50;27.20;;;;;;10455817;28;20308;-72
2021/04/09 09:50:11;;;;;;;2.60;2.40;;;14.80;27.10;;;;;;10454398;28;20233;-72
2021/04/09 09:55:17;;;;;;;2.73;2.43;;;15.00;26.00;;;;;;10455062;28;20678;-72
2021/04/09 10:00:36;;;;;;;2.37;2.17;;;15.30;26.10;;;;;;10452768;28;20471;-72
2021/04/09 10:05:41;;;;;;;2.57;2.30;;;15.60;25.70;;;;;;10448998;28;20229;-72
2021/04/09 10:10:46;;;;;;;2.90;2.70;;;15.70;25.70;;;;;;10455756;28;20315;-72
2021/04/09 10:15:50;;;;;;;2.83;2.40;;;15.90;25.30;;;;;;10449172;28;20320;-72
2021/04/09 10:21:09;;;;;;;3.33;2.30;;;16.10;25.50;;;;;;10453135;28;20228;-72
2021/04/09 10:26:13;;;;;;;2.67;2.20;;;16.20;23.90;;;;;;10452167;28;20225;-72
2021/04/09 10:31:17;;;;;;;2.40;2.20;;;16.40;24.50;;;;;;10452027;28;20444;-72
2021/04/09 10:36:21;;;;;;;2.67;2.27;;;16.60;24.30;;;;;;10451014;28;20228;-72
2021/04/09 10:41:30;;;;;;;2.43;2.20;;;16.80;23.90;;;;;;10449415;28;20259;-71
2021/04/09 10:46:34;;;;;;;2.60;2.23;;;17.10;23.40;;;;;;10451465;28;20756;-72
2021/04/09 10:51:39;;;;;;;2.30;2.10;;;17.30;23.60;;;;;;10451326;28;20754;-73
2021/04/09 10:56:52;;;;;;;4.70;2.30;;;17.40;23.60;;;;;;10448710;28;20239;-73
2021/04/09 11:01:55;;;;;;;3.50;2.00;;;17.50;21.70;;;;;;10452515;28;20233;-71
2021/04/09 11:07:00;;;;;;;2.20;1.93;;;17.60;23.60;;;;;;10449625;28;20750;-71
2021/04/09 11:12:20;;;;;;;2.07;1.90;;;17.80;23.40;;;;;;10459927;28;20310;-70
2021/04/09 11:17:24;;;;;;;3.83;1.90;;;18.00;21.80;;;;;;10450765;28;20240;-70
2021/04/09 11:22:28;;;;;;;2.50;2.30;;;18.20;22.90;;;;;;10445724;28;20229;-70
2021/04/09 11:27:33;;;;;;;4.87;2.40;;;18.40;22.50;;;;;;10450064;28;20229;-72
2021/04/09 11:32:41;;;;;;;3.27;2.30;;;18.60;21.60;;;;;;10448385;28;20248;-73
2021/04/09 11:37:44;;;;;;;2.20;2.10;;;18.70;20.30;;;;;;10448980;28;20240;-73
2021/04/09 11:42:53;;;;;;;2.40;2.20;;;18.60;20.80;;;;;;10448833;28;20612;-70
2021/04/09 11:47:55;;;;;;;2.27;2.07;;;18.40;19.90;;;;;;10445105;28;20237;-70
2021/04/09 11:53:01;;;;;;;2.23;1.93;;;18.40;21.30;;;;;;10440480;28;20235;-70
2021/04/09 11:58:16;;;;;;;1.93;1.83;;;18.30;21.40;;;;;;10442607;28;20224;-70
2021/04/09 12:03:18;;;;;;;2.00;1.90;;;18.30;20.80;;;;;;10442845;28;20661;-70
2021/04/09 12:08:20;;;;;;;2.30;2.10;;;18.30;21.20;;;;;;10446588;28;20332;-70
2021/04/09 12:13:23;;;;;;;2.10;2.00;;;18.30;21.30;;;;;;10431395;28;20635;-70
2021/04/09 12:18:25;;;;;;;2.70;2.13;;;18.30;21.10;;;;;;10434265;28;20708;-70
2021/04/09 12:23:28;;;;;;;2.40;2.20;;;18.40;20.80;;;;;;10434402;28;20242;-70
2021/04/09 12:28:31;;;;;;;2.40;2.20;;;18.40;20.70;;;;;;10441423;28;20356;-70
2021/04/09 12:33:33;;;;;;;2.13;1.90;;;18.50;20.70;;;;;;10433411;28;20655;-70
2021/04/09 12:38:35;;;;;;;2.07;1.90;;;18.60;21.00;;;;;;10437199;28;20312;-70
2021/04/09 12:43:39;;;;;;;2.70;1.93;;;18.60;20.50;;;;;;10458017;28;20237;-70
2021/04/09 12:48:41;;;;;;;3.60;2.37;;;18.70;20.30;;;;;;10450170;28;20311;-70
2021/04/09 12:53:43;;;;;;;3.23;2.40;;;18.60;19.70;;;;;;10446361;28;20291;-70
2021/04/09 12:58:46;;;;;;;2.97;2.20;;;18.60;19.90;;;;;;10442443;28;20250;-70
2021/04/09 13:03:49;;;;;;;3.40;3.10;;;18.50;19.80;;;;;;10445772;28;20691;-70
2021/04/09 13:08:51;;;;;;;4.23;2.70;;;18.50;20.00;;;;;;10444037;28;20729;-70
2021/04/09 13:13:56;;;;;;;2.67;2.30;;;18.50;20.00;;;;;;10444523;28;20249;-70
2021/04/09 13:19:00;;;;;;;2.53;2.30;;;18.50;19.70;;;;;;10453810;28;20221;-70
2021/04/09 13:24:02;;;;;;;4.00;2.60;;;18.50;19.70;;;;;;10448647;28;20702;-70
2021/04/09 13:29:06;;;;;;;3.03;2.47;;;18.50;19.90;;;;;;10453466;28;20645;-70
2021/04/09 13:34:08;;;;;;;3.43;2.70;;;18.60;19.90;;;;;;10453343;28;20256;-70
2021/04/09 13:39:10;;;;;;;3.40;2.40;;;18.60;19.80;;;;;;10452966;28;20710;-70
2021/04/09 13:44:13;;;;;;;3.03;2.40;;;18.60;19.70;;;;;;10453429;28;20225;-70
2021/04/09 13:49:16;;;;;;;4.27;3.87;;;18.60;19.60;;;;;;10452541;28;20311;-70
2021/04/09 13:54:19;;;;;;;2.70;2.50;;;18.70;19.80;;;;;;10450044;28;20275;-70
2021/04/09 13:59:22;;;;;;;3.17;2.40;;;18.70;19.70;;;;;;10451331;28;20232;-70
2021/04/09 14:04:24;;;;;;;2.13;1.93;;;18.70;19.30;;;;;;10449119;28;20232;-70
2021/04/09 14:09:26;;;;;;;2.37;2.13;;;18.80;19.80;;;;;;10450901;28;20315;-69
2021/04/09 14:14:29;;;;;;;2.97;2.50;;;18.90;19.70;;;;;;10452539;28;20260;-70
2021/04/09 14:19:32;;;;;;;2.43;2.20;;;18.90;19.30;;;;;;10452803;28;20308;-70
2021/04/09 14:24:34;;;;;;;2.40;2.20;;;19.00;19.40;;;;;;10452149;28;20260;-70
2021/04/09 14:29:37;;;;;;;2.60;2.37;;;19.00;19.20;;;;;;10454609;28;20235;-70
2021/04/09 14:34:40;;;;;;;2.80;2.20;;;19.00;18.90;;;;;;10456711;28;20336;-70
2021/04/09 14:39:44;;;;;;;2.37;2.17;;;19.10;19.20;;;;;;10450821;28;20311;-70
2021/04/09 14:44:47;;;;;;;4.37;2.50;;;19.10;19.00;;;;;;10455966;28;20280;-70
2021/04/09 14:49:50;;;;;;;2.73;2.10;;;19.10;18.90;;;;;;10449127;28;20233;-70
2021/04/09 14:54:52;;;;;;;2.20;2.00;;;19.10;18.90;;;;;;10451927;28;20237;-70
2021/04/09 14:59:56;;;;;;;3.80;2.00;;;19.10;18.90;;;;;;10454616;28;20243;-70
2021/04/09 15:04:59;;;;;;;3.73;2.10;;;19.20;19.20;;;;;;10451368;28;20229;-70
2021/04/09 15:10:01;;;;;;;3.30;2.20;;;19.30;18.80;;;;;;10455335;28;20259;-70
2021/04/09 15:15:07;;;;;;;4.63;2.13;;;19.30;18.60;;;;;;10446945;28;20232;-70
2021/04/09 15:20:12;;;;;;;4.40;2.30;;;19.30;17.70;;;;;;10449202;28;20332;-70
2021/04/09 15:25:15;;;;;;;2.67;2.40;;;19.40;18.40;;;;;;10456311;28;20756;-70
2021/04/09 15:30:21;;;;;;;2.13;1.93;;;19.40;18.40;;;;;;10450469;28;20286;-70
2021/04/09 15:35:23;;;;;;;2.53;2.30;;;19.40;17.70;;;;;;10447588;28;20229;-70
2021/04/09 15:40:26;;;;;;;2.30;2.10;;;19.40;18.00;;;;;;10446779;28;20244;-70
2021/04/09 15:45:32;;;;;;;3.33;2.30;;;19.40;18.20;;;;;;10446224;28;20733;-70
2021/04/09 15:50:35;;;;;;;3.70;2.10;;;19.30;17.50;;;;;;10445615;28;20363;-70
2021/04/09 15:55:37;;;;;;;2.67;1.90;;;19.30;17.60;;;;;;10450736;28;20221;-70
2021/04/09 16:00:40;;;;;;;3.17;2.17;;;19.20;17.90;;;;;;10447625;28;20312;-70
2021/04/09 16:05:43;;;;;;;2.43;1.80;;;19.20;17.60;;;;;;10448358;28;21224;-73
2021/04/09 16:10:45;;;;;;;1.67;1.57;;;19.30;18.70;;;;;;10446704;28;20279;-70
2021/04/09 16:15:49;;;;;;;3.17;2.40;;;19.30;18.10;;;;;;10446699;28;20632;-70
2021/04/09 16:20:51;;;;;;;4.00;2.20;;;19.40;17.60;;;;;;10444800;28;20308;-70
2021/04/09 16:25:54;;;;;;;1.90;1.70;;;19.40;17.80;;;;;;10450268;28;20229;-70
2021/04/09 16:30:57;;;;;;;2.00;1.90;;;19.40;17.80;;;;;;10446640;28;20315;-70
2021/04/09 16:36:00;;;;;;;2.40;2.20;;;19.50;17.50;;;;;;10447417;28;20233;-70
2021/04/09 16:41:02;;;;;;;4.03;1.83;;;19.60;17.40;;;;;;10447379;28;20217;-70
2021/04/09 16:46:06;;;;;;;3.90;2.30;;;19.60;17.20;;;;;;10441952;28;20701;-70
2021/04/09 16:51:08;;;;;;;3.83;2.30;;;19.60;16.80;;;;;;10448361;28;20319;-70
2021/04/09 16:56:10;;;;;;;2.93;2.70;;;19.50;17.00;;;;;;10447506;28;20233;-70
2021/04/09 17:01:13;;;;;;;3.73;3.37;;;19.50;17.20;;;;;;10447343;28;20312;-70
2021/04/09 17:06:15;;;;;;;4.03;2.80;;;19.50;17.10;;;;;;10445889;28;20267;-70
2021/04/09 17:11:18;;;;;;;5.97;5.47;;;19.40;17.10;;;;;;10447764;28;20263;-71
2021/04/09 17:16:21;;;;;;;5.03;4.50;;;19.40;17.10;;;;;;10444704;28;20275;-71
2021/04/09 17:21:23;;;;;;;3.20;2.90;;;19.30;17.20;;;;;;10444737;28;20340;-70
2021/04/09 17:26:25;;;;;;;3.47;3.20;;;19.20;17.40;;;;;;10440656;28;20689;-70
2021/04/09 17:31:29;;;;;;;2.60;2.20;;;19.20;17.60;;;;;;10450356;28;20852;-71
2021/04/09 17:36:31;;;;;;;2.37;2.13;;;19.00;17.50;;;;;;10446504;28;20221;-70
2021/04/09 17:41:34;;;;;;;2.40;2.07;;;18.90;17.50;;;;;;10447425;28;20248;-71
2021/04/09 17:46:37;;;;;;;4.37;2.00;;;18.80;17.80;;;;;;10443691;28;20689;-71
2021/04/09 17:51:40;;;;;;;2.13;1.93;;;18.70;18.00;;;;;;10445245;28;20233;-71
2021/04/09 17:56:42;;;;;;;4.07;3.17;;;18.60;18.20;;;;;;10448714;28;20217;-71
2021/04/09 18:01:45;;;;;;;7.17;3.70;;;18.40;18.40;;;;;;10452870;28;20264;-71
2021/04/09 18:06:50;;;;;;;7.40;6.70;;;18.30;18.30;;;;;;10453093;28;20229;-71
2021/04/09 18:11:52;;;;;;;6.73;6.03;;;18.20;18.30;;;;;;10452503;28;20331;-71
2021/04/09 18:16:55;;;;;;;7.00;6.30;;;17.90;18.50;;;;;;10458631;28;20303;-71
2021/04/09 18:21:58;;;;;;;6.27;5.67;;;17.70;18.50;;;;;;10466127;28;20639;-71
2021/04/09 18:27:00;;;;;;;6.37;5.77;;;17.50;18.60;;;;;;10453182;28;20303;-71
2021/04/09 18:32:03;;;;;;;6.07;5.47;;;17.30;18.80;;;;;;10451668;28;20312;-71
2021/04/09 18:37:06;;;;;;;4.70;4.27;;;17.10;18.90;;;;;;10455060;28;20236;-71
2021/04/09 18:42:08;;;;;;;5.83;5.00;;;16.90;19.00;;;;;;10449632;28;20232;-71
2021/04/09 18:47:12;;;;;;;5.80;5.03;;;16.70;19.20;;;;;;10452079;28;20255;-71
2021/04/09 18:52:14;;;;;;;6.80;6.10;;;16.60;19.30;;;;;;10472310;28;20232;-71
2021/04/09 18:57:16;;;;;;;7.47;6.67;;;16.50;19.40;;;;;;10459850;28;20236;-71
2021/04/09 19:02:22;;;;;;;6.83;5.63;;;16.40;19.30;;;;;;10459927;28;20233;-71
2021/04/09 19:07:24;;;;;;;7.43;6.83;;;16.20;19.40;;;;;;10471962;28;20932;-73
2021/04/09 19:12:27;;;;;;;7.30;6.70;;;16.10;20.00;;;;;;10469382;28;20259;-71
2021/04/09 19:17:30;;;;;;;7.47;6.70;;;15.90;19.50;;;;;;10477811;28;20676;-71
2021/04/09 19:22:32;;;;;;;7.60;6.23;;;15.70;19.60;;;;;;10452402;28;20803;-73
2021/04/09 19:27:53;;;;;;;11.10;9.50;;;15.50;19.90;;;;;;10451151;28;20231;-72
2021/04/09 19:32:56;;;;;;;12.43;8.53;;;15.30;20.00;;;;;;10456038;28;20232;-72
2021/04/09 19:37:59;;;;;;;9.23;7.87;;;15.20;20.30;;;;;;10447694;28;20228;-72
2021/04/09 19:43:01;;;;;;;9.03;7.67;;;15.00;20.30;;;;;;10447016;28;20233;-72
2021/04/09 19:48:05;;;;;;;10.03;7.53;;;14.90;20.50;;;;;;10447655;28;20317;-72
2021/04/09 19:53:08;;;;;;;12.33;8.17;;;14.80;20.60;;;;;;10448586;28;20275;-72
2021/04/09 19:58:11;;;;;;;6.77;5.97;;;14.70;20.60;;;;;;10446187;28;20653;-72
2021/04/09 20:03:33;;;;;;;8.90;8.00;;;14.60;21.10;;;;;;10443917;28;20327;-72
2021/04/09 20:08:35;;;;;;;9.13;8.23;;;14.50;20.60;;;;;;10446883;28;20610;-72
2021/04/09 20:13:38;;;;;;;9.87;8.53;;;14.40;20.70;;;;;;10449654;28;20320;-72
2021/04/09 20:18:41;;;;;;;10.40;7.83;;;14.40;20.80;;;;;;10444820;28;20235;-72
2021/04/09 20:23:43;;;;;;;8.73;7.60;;;14.30;20.80;;;;;;10447698;28;20244;-71
2021/04/09 20:28:45;;;;;;;8.53;7.23;;;14.20;20.70;;;;;;10455449;28;20241;-72
2021/04/09 20:33:49;;;;;;;7.20;5.87;;;14.10;20.80;;;;;;10449196;28;20930;-71
2021/04/09 20:38:52;;;;;;;6.83;5.30;;;14.00;21.00;;;;;;10447522;28;20598;-72
2021/04/09 20:43:55;;;;;;;5.90;5.00;;;13.90;20.80;;;;;;10448958;28;20824;-71
2021/04/09 20:48:58;;;;;;;7.77;5.30;;;13.80;20.90;;;;;;10459248;28;20239;-71
2021/04/09 20:54:01;;;;;;;5.60;4.73;;;13.70;21.10;;;;;;10448317;28;20237;-72
2021/04/09 20:59:03;;;;;;;6.17;5.43;;;13.50;20.90;;;;;;10445934;28;20295;-72
2021/04/09 21:04:06;;;;;;;6.17;5.30;;;13.40;20.90;;;;;;10448706;28;20648;-71
2021/04/09 21:09:09;;;;;;;5.47;4.73;;;13.30;20.80;;;;;;10448704;28;20332;-72
2021/04/09 21:14:11;;;;;;;4.90;4.40;;;13.30;20.80;;;;;;10447300;28;20239;-72
2021/04/09 21:19:14;;;;;;;4.97;4.53;;;13.20;20.80;;;;;;10452663;28;20271;-72
2021/04/09 21:24:16;;;;;;;4.97;4.50;;;13.20;21.10;;;;;;10441327;28;20312;-71
2021/04/09 21:29:19;;;;;;;5.33;4.60;;;13.10;21.10;;;;;;10450597;28;20784;-72
2021/04/09 21:34:22;;;;;;;5.27;4.77;;;13.10;21.20;;;;;;10448562;28;20316;-72
2021/04/09 21:39:24;;;;;;;4.60;4.10;;;13.00;21.30;;;;;;10460626;28;20699;-72
2021/04/09 21:44:26;;;;;;;5.80;4.80;;;12.80;21.10;;;;;;10455997;28;20259;-72
2021/04/09 21:49:29;;;;;;;8.17;5.07;;;12.70;21.30;;;;;;10455427;28;20279;-72
2021/04/09 21:54:32;;;;;;;5.80;5.10;;;12.60;21.50;;;;;;10456886;28;20653;-72
2021/04/09 21:59:34;;;;;;;6.07;5.47;;;12.50;21.40;;;;;;10455480;28;20260;-71
2021/04/09 22:04:37;;;;;;;7.70;5.60;;;12.50;21.60;;;;;;10455375;28;20311;-71
2021/04/09 22:09:40;;;;;;;5.73;4.83;;;12.40;21.70;;;;;;10454722;28;20233;-71
2021/04/09 22:14:43;;;;;;;7.77;6.07;;;12.20;21.50;;;;;;10458006;28;20236;-71
2021/04/09 22:19:46;;;;;;;6.17;5.33;;;12.10;21.60;;;;;;10448685;28;20768;-72
2021/04/09 22:24:49;;;;;;;8.40;5.67;;;12.00;21.90;;;;;;10454624;28;20308;-72
2021/04/09 22:29:51;;;;;;;6.13;5.50;;;12.00;21.80;;;;;;10455194;28;20225;-73
2021/04/09 22:34:55;;;;;;;8.53;6.50;;;11.80;21.80;;;;;;10454338;28;20316;-73
2021/04/09 22:39:57;;;;;;;8.03;6.13;;;11.80;22.00;;;;;;10453668;28;20320;-74
2021/04/09 22:44:59;;;;;;;6.13;5.53;;;11.70;21.90;;;;;;10461449;28;20728;-72
2021/04/09 22:50:04;;;;;;;7.73;5.10;;;11.60;21.80;;;;;;10452937;28;20227;-72
2021/04/09 22:55:09;;;;;;;6.67;5.53;;;11.50;22.00;;;;;;10450569;28;20296;-72
2021/04/09 23:00:14;;;;;;;8.43;7.00;;;11.40;22.10;;;;;;10452235;28;20317;-72
2021/04/09 23:05:17;;;;;;;14.17;11.17;;;11.30;22.30;;;;;;10458624;28;20311;-71
2021/04/09 23:10:19;;;;;;;8.57;7.67;;;11.20;22.20;;;;;;10451879;28;20321;-71
2021/04/09 23:15:21;;;;;;;6.97;6.27;;;10.90;22.10;;;;;;10452767;28;20729;-71
2021/04/09 23:20:24;;;;;;;6.37;5.10;;;10.70;22.40;;;;;;10449609;28;20319;-71
2021/04/09 23:25:27;;;;;;;6.80;5.80;;;10.60;22.70;;;;;;10442501;28;20311;-71
2021/04/09 23:30:29;;;;;;;7.30;5.73;;;10.50;22.80;;;;;;10447416;28;20239;-71
2021/04/09 23:35:32;;;;;;;6.80;5.73;;;10.50;22.90;;;;;;10450717;28;20307;-72
2021/04/09 23:40:35;;;;;;;7.03;5.67;;;10.50;23.10;;;;;;10450350;28;20312;-71
2021/04/09 23:45:37;;;;;;;9.83;5.70;;;10.50;23.00;;;;;;10449474;28;20665;-73
2021/04/09 23:50:40;;;;;;;6.97;5.13;;;10.50;23.00;;;;;;10447527;28;20256;-73
2021/04/09 23:55:42;;;;;;;6.30;5.70;;;10.50;23.20;;;;;;10449757;28;20316;-73
